Time;durP1;ratioP1;P1;durP2;ratioP2;P2;SDS_P1;SDS_P2;PMS_P1;PMS_P2;Temp;Humidity;BMP_temperature;BMP_pressure;BME280_temperature;BME280_humidity;BME280_pressure;Samples;Min_cycle;Max_cycle;Signal;HPM_P1;HPM_P2
2024/01/26 00:00:13;;;;;;;26.65;10.55;;;;;;;;;;7368262;19;20010;-75
2024/01/26 00:02:38;;;;;;;22.85;9.85;;;;;;;;;;7367186;19;20003;-75
2024/01/26 00:05:04;;;;;;;23.17;10.80;;;;;;;;;;7365458;19;20014;-75
2024/01/26 00:07:29;;;;;;;19.50;10.27;;;;;;;;;;7388818;19;20009;-75
2024/01/26 00:09:55;;;;;;;20.42;10.88;;;;;;;;;;7367606;19;20410;-75
2024/01/26 00:12:20;;;;;;;24.60;11.23;;;;;;;;;;7366659;19;20003;-73
2024/01/26 00:14:46;;;;;;;27.40;10.98;;;;;;;;;;7367223;19;20124;-74
2024/01/26 00:17:11;;;;;;;27.75;11.80;;;;;;;;;;7366788;19;20030;-75
2024/01/26 00:19:37;;;;;;;27.42;11.10;;;;;;;;;;7388942;19;20034;-74
2024/01/26 00:22:02;;;;;;;27.58;12.00;;;;;;;;;;7366441;19;20028;-74
2024/01/26 00:24:28;;;;;;;27.65;12.43;;;;;;;;;;7363202;19;20015;-74
2024/01/26 00:26:53;;;;;;;33.38;13.05;;;;;;;;;;7365192;19;20006;-75
2024/01/26 00:29:18;;;;;;;31.75;12.70;;;;;;;;;;7363639;19;20014;-75
2024/01/26 00:31:44;;;;;;;34.42;12.57;;;;;;;;;;7364845;19;20010;-75
2024/01/26 00:34:09;;;;;;;35.72;12.85;;;;;;;;;;7384229;19;20038;-74
2024/01/26 00:36:35;;;;;;;28.73;12.93;;;;;;;;;;7363773;19;20026;-75
2024/01/26 00:39:00;;;;;;;27.38;13.27;;;;;;;;;;7361397;19;20003;-74
2024/01/26 00:41:26;;;;;;;29.17;13.05;;;;;;;;;;7363277;19;20040;-74
2024/01/26 00:43:51;;;;;;;32.50;13.63;;;;;;;;;;7363367;19;20014;-74
2024/01/26 00:46:17;;;;;;;31.25;13.80;;;;;;;;;;7388663;19;20006;-74
2024/01/26 00:48:42;;;;;;;30.75;12.88;;;;;;;;;;7365621;19;20171;-74
2024/01/26 00:51:07;;;;;;;23.92;13.48;;;;;;;;;;7366867;19;20022;-74
2024/01/26 00:53:33;;;;;;;33.08;14.00;;;;;;;;;;7365241;19;20006;-74
2024/01/26 00:55:58;;;;;;;30.63;13.98;;;;;;;;;;7367114;19;20457;-74
2024/01/26 00:58:23;;;;;;;28.17;13.50;;;;;;;;;;7386367;19;20005;-74
2024/01/26 01:00:49;;;;;;;22.70;12.25;;;;;;;;;;7365745;19;20011;-75
2024/01/26 01:03:14;;;;;;;30.35;13.30;;;;;;;;;;7365044;19;20031;-75
2024/01/26 01:05:39;;;;;;;32.53;12.98;;;;;;;;;;7365990;19;20018;-75
2024/01/26 01:08:05;;;;;;;27.92;12.80;;;;;;;;;;7366117;19;20074;-75
2024/01/26 01:10:31;;;;;;;33.17;13.63;;;;;;;;;;7388833;19;20415;-75
2024/01/26 01:12:57;;;;;;;25.83;13.07;;;;;;;;;;7366265;19;20045;-75
2024/01/26 01:15:23;;;;;;;31.95;13.40;;;;;;;;;;7369909;19;20010;-75
2024/01/26 01:17:49;;;;;;;30.50;13.35;;;;;;;;;;7372618;19;20423;-76
2024/01/26 01:20:15;;;;;;;21.67;10.90;;;;;;;;;;7374509;19;20007;-74
2024/01/26 01:22:41;;;;;;;26.58;12.43;;;;;;;;;;7395908;19;20483;-74
2024/01/26 01:25:08;;;;;;;28.55;12.65;;;;;;;;;;7372510;19;20006;-74
2024/01/26 01:27:35;;;;;;;28.70;12.77;;;;;;;;;;7372829;19;20006;-74
2024/01/26 01:30:05;;;;;;;26.42;12.75;;;;;;;;;;7375826;19;20394;-74
2024/01/26 01:32:30;;;;;;;29.15;13.23;;;;;;;;;;7373871;19;20009;-74
2024/01/26 01:34:55;;;;;;;29.17;13.25;;;;;;;;;;7370606;19;20019;-74
2024/01/26 01:37:21;;;;;;;35.92;13.30;;;;;;;;;;7396947;19;20009;-74
2024/01/26 01:39:50;;;;;;;26.75;13.38;;;;;;;;;;7373219;19;20003;-74
2024/01/26 01:42:15;;;;;;;30.15;14.02;;;;;;;;;;7374037;19;20006;-74
2024/01/26 01:44:42;;;;;;;27.35;13.52;;;;;;;;;;7372030;19;20019;-74
2024/01/26 01:47:11;;;;;;;34.35;13.88;;;;;;;;;;7373821;19;20201;-74
2024/01/26 01:49:38;;;;;;;34.78;13.60;;;;;;;;;;7401063;19;20010;-74
2024/01/26 01:52:13;;;;;;;29.08;13.57;;;;;;;;;;7381705;19;20018;-74
2024/01/26 01:54:40;;;;;;;29.15;13.27;;;;;;;;;;7379264;19;20013;-74
2024/01/26 01:57:06;;;;;;;28.55;12.98;;;;;;;;;;7375461;19;20014;-74
2024/01/26 01:59:32;;;;;;;27.92;13.10;;;;;;;;;;7369993;19;20028;-74
2024/01/26 02:01:57;;;;;;;29.20;13.25;;;;;;;;;;7372533;19;20030;-74
2024/01/26 02:04:23;;;;;;;31.08;13.77;;;;;;;;;;7392723;19;20074;-74
2024/01/26 02:06:56;;;;;;;29.60;13.80;;;;;;;;;;7372065;19;20360;-75
2024/01/26 02:09:21;;;;;;;30.98;13.40;;;;;;;;;;7370127;19;20010;-74
2024/01/26 02:11:47;;;;;;;28.63;13.80;;;;;;;;;;7370840;19;20018;-74
2024/01/26 02:14:12;;;;;;;30.67;13.18;;;;;;;;;;7370476;19;20060;-74
2024/01/26 02:16:37;;;;;;;27.38;14.05;;;;;;;;;;7393688;19;19999;-74
2024/01/26 02:19:02;;;;;;;32.00;12.93;;;;;;;;;;7367817;19;20003;-74
2024/01/26 02:21:28;;;;;;;25.80;12.93;;;;;;;;;;7370193;19;20342;-74
2024/01/26 02:23:53;;;;;;;32.25;13.55;;;;;;;;;;7367877;19;20003;-74
2024/01/26 02:26:18;;;;;;;27.70;12.45;;;;;;;;;;7366794;19;20011;-74
2024/01/26 02:28:44;;;;;;;34.00;13.48;;;;;;;;;;7368542;19;20005;-74
2024/01/26 02:31:09;;;;;;;32.45;13.55;;;;;;;;;;7389109;19;20097;-74
2024/01/26 02:33:34;;;;;;;32.80;13.35;;;;;;;;;;7366022;19;20013;-75
2024/01/26 02:36:00;;;;;;;28.45;11.65;;;;;;;;;;7367550;19;20973;-74
2024/01/26 02:38:25;;;;;;;35.33;13.35;;;;;;;;;;7365721;19;20014;-74
2024/01/26 02:40:50;;;;;;;32.22;11.75;;;;;;;;;;7370048;19;20010;-74
2024/01/26 02:43:16;;;;;;;34.15;13.07;;;;;;;;;;7392277;19;20395;-74
2024/01/26 02:45:46;;;;;;;33.22;13.30;;;;;;;;;;7371196;19;20006;-74
2024/01/26 02:48:11;;;;;;;31.80;12.57;;;;;;;;;;7369979;19;20010;-74
2024/01/26 02:50:37;;;;;;;28.80;12.38;;;;;;;;;;7372475;19;20015;-74
2024/01/26 02:53:02;;;;;;;29.88;12.65;;;;;;;;;;7371083;19;19999;-75
2024/01/26 02:55:27;;;;;;;30.98;13.15;;;;;;;;;;7392781;19;20025;-76
2024/01/26 02:57:53;;;;;;;28.75;12.23;;;;;;;;;;7368951;19;20021;-75
2024/01/26 03:00:18;;;;;;;28.42;11.25;;;;;;;;;;7368924;19;20011;-75
2024/01/26 03:02:43;;;;;;;27.63;11.73;;;;;;;;;;7370077;19;20002;-76
2024/01/26 03:05:09;;;;;;;29.52;11.88;;;;;;;;;;7370005;19;20037;-76
2024/01/26 03:07:34;;;;;;;31.40;12.57;;;;;;;;;;7390898;19;20006;-76
2024/01/26 03:10:00;;;;;;;30.02;11.73;;;;;;;;;;7368788;19;20448;-76
2024/01/26 03:12:25;;;;;;;28.48;12.13;;;;;;;;;;7371965;19;20021;-76
2024/01/26 03:14:52;;;;;;;30.23;12.43;;;;;;;;;;7370001;19;20014;-75
2024/01/26 03:17:17;;;;;;;29.08;11.93;;;;;;;;;;7369877;19;20045;-76
2024/01/26 03:19:43;;;;;;;27.55;12.00;;;;;;;;;;7377182;19;20420;-75
2024/01/26 03:22:08;;;;;;;29.05;13.00;;;;;;;;;;7385278;19;20009;-76
2024/01/26 03:24:33;;;;;;;28.23;12.57;;;;;;;;;;7368105;19;20007;-75
2024/01/26 03:26:59;;;;;;;29.48;12.75;;;;;;;;;;7369576;19;20587;-75
2024/01/26 03:29:24;;;;;;;29.88;12.75;;;;;;;;;;7367500;19;20010;-76
2024/01/26 03:31:49;;;;;;;27.80;12.77;;;;;;;;;;7368268;19;20017;-76
2024/01/26 03:34:15;;;;;;;35.97;13.40;;;;;;;;;;7388989;19;20015;-75
2024/01/26 03:36:40;;;;;;;28.10;12.32;;;;;;;;;;7368640;19;20018;-75
2024/01/26 03:39:05;;;;;;;34.17;13.73;;;;;;;;;;7367107;19;20017;-76
2024/01/26 03:41:31;;;;;;;31.25;14.00;;;;;;;;;;7369453;19;20014;-76
2024/01/26 03:43:56;;;;;;;29.02;14.25;;;;;;;;;;7367419;19;20465;-75
2024/01/26 03:46:22;;;;;;;33.20;13.43;;;;;;;;;;7389525;19;20124;-75
2024/01/26 03:48:48;;;;;;;32.15;13.43;;;;;;;;;;7366064;19;20010;-76
2024/01/26 03:51:13;;;;;;;30.90;13.65;;;;;;;;;;7368752;19;20369;-75
2024/01/26 03:53:39;;;;;;;31.60;13.88;;;;;;;;;;7367452;19;20006;-75
2024/01/26 03:56:04;;;;;;;35.03;15.02;;;;;;;;;;7368829;19;20544;-75
2024/01/26 03:58:29;;;;;;;32.92;14.88;;;;;;;;;;7387920;19;20007;-75
2024/01/26 04:00:55;;;;;;;35.22;14.63;;;;;;;;;;7367631;19;20010;-75
2024/01/26 04:03:21;;;;;;;30.85;14.48;;;;;;;;;;7367993;19;20354;-75
2024/01/26 04:05:46;;;;;;;33.55;14.93;;;;;;;;;;7369615;19;20093;-75
2024/01/26 04:08:12;;;;;;;37.78;15.55;;;;;;;;;;7367947;19;20011;-75
2024/01/26 04:10:38;;;;;;;28.65;14.00;;;;;;;;;;7390867;19;20030;-75
2024/01/26 04:13:03;;;;;;;35.53;15.27;;;;;;;;;;7367645;19;20090;-75
2024/01/26 04:15:28;;;;;;;32.42;15.20;;;;;;;;;;7367156;19;20074;-75
2024/01/26 04:17:56;;;;;;;34.58;15.45;;;;;;;;;;7366617;19;20039;-75
2024/01/26 04:20:21;;;;;;;35.10;15.13;;;;;;;;;;7369050;19;20483;-75
2024/01/26 04:22:47;;;;;;;33.30;15.98;;;;;;;;;;7368073;19;19995;-75
2024/01/26 04:25:12;;;;;;;36.40;15.75;;;;;;;;;;7388822;19;20003;-75
2024/01/26 04:27:37;;;;;;;35.15;16.45;;;;;;;;;;7366993;19;20070;-75
2024/01/26 04:30:04;;;;;;;32.45;14.98;;;;;;;;;;7367060;19;20019;-75
2024/01/26 04:32:29;;;;;;;33.67;16.00;;;;;;;;;;7371641;19;20013;-75
2024/01/26 04:34:55;;;;;;;31.65;15.00;;;;;;;;;;7367063;19;20011;-76
2024/01/26 04:37:20;;;;;;;36.50;16.58;;;;;;;;;;7392867;19;20030;-76
2024/01/26 04:39:45;;;;;;;37.03;15.07;;;;;;;;;;7366611;19;20473;-75
2024/01/26 04:42:11;;;;;;;33.28;16.40;;;;;;;;;;7365876;19;20075;-75
2024/01/26 04:44:36;;;;;;;30.80;15.75;;;;;;;;;;7367882;19;20017;-75
2024/01/26 04:47:01;;;;;;;30.27;15.43;;;;;;;;;;7370100;19;20004;-75
2024/01/26 04:49:27;;;;;;;39.85;16.38;;;;;;;;;;7389953;19;19995;-75
2024/01/26 04:51:52;;;;;;;32.13;14.68;;;;;;;;;;7374138;19;20061;-75
2024/01/26 04:54:17;;;;;;;34.22;15.80;;;;;;;;;;7374162;19;20007;-75
2024/01/26 04:56:43;;;;;;;33.08;15.43;;;;;;;;;;7378715;19;19995;-75
2024/01/26 04:59:08;;;;;;;32.25;15.45;;;;;;;;;;7373760;19;20010;-75
2024/01/26 05:01:34;;;;;;;31.70;15.43;;;;;;;;;;7393417;19;20326;-75
2024/01/26 05:03:59;;;;;;;32.95;15.35;;;;;;;;;;7371599;19;20496;-75
2024/01/26 05:06:24;;;;;;;35.10;16.08;;;;;;;;;;7373291;19;20340;-75
2024/01/26 05:08:51;;;;;;;31.58;15.80;;;;;;;;;;7372090;19;19998;-75
2024/01/26 05:11:18;;;;;;;32.05;14.18;;;;;;;;;;7373659;19;20082;-76
2024/01/26 05:13:44;;;;;;;30.83;15.48;;;;;;;;;;7372708;19;20009;-76
2024/01/26 05:16:09;;;;;;;29.50;15.15;;;;;;;;;;7395074;19;19991;-76
2024/01/26 05:18:34;;;;;;;33.40;16.83;;;;;;;;;;7371188;19;20002;-74
2024/01/26 05:21:00;;;;;;;31.98;15.02;;;;;;;;;;7373593;19;20003;-75
2024/01/26 05:23:25;;;;;;;28.02;13.27;;;;;;;;;;7371785;19;20478;-75
2024/01/26 05:25:50;;;;;;;36.85;15.68;;;;;;;;;;7373591;19;19999;-75
2024/01/26 05:28:16;;;;;;;29.20;13.85;;;;;;;;;;7394550;19;20006;-75
2024/01/26 05:30:41;;;;;;;26.33;13.13;;;;;;;;;;7373768;19;20362;-76
2024/01/26 05:33:07;;;;;;;28.55;14.05;;;;;;;;;;7371148;19;20022;-76
2024/01/26 05:35:32;;;;;;;19.02;10.27;;;;;;;;;;7370912;19;20658;-76
2024/01/26 05:37:57;;;;;;;19.15;11.25;;;;;;;;;;7369932;19;19998;-76
2024/01/26 05:40:23;;;;;;;20.02;10.60;;;;;;;;;;7394578;19;20011;-75
2024/01/26 05:42:48;;;;;;;18.42;10.20;;;;;;;;;;7371707;19;20015;-75
2024/01/26 05:45:15;;;;;;;19.10;9.77;;;;;;;;;;7373278;19;20003;-76
2024/01/26 05:47:41;;;;;;;18.65;9.20;;;;;;;;;;7361020;19;20671;-76
2024/01/26 05:50:06;;;;;;;18.95;9.73;;;;;;;;;;7368463;19;20047;-76
2024/01/26 05:52:31;;;;;;;14.75;9.00;;;;;;;;;;7390338;19;20002;-76
2024/01/26 05:54:57;;;;;;;16.48;9.18;;;;;;;;;;7366060;19;20002;-76
2024/01/26 05:57:22;;;;;;;20.35;9.82;;;;;;;;;;7368188;19;20939;-76
2024/01/26 05:59:47;;;;;;;16.88;8.65;;;;;;;;;;7368160;19;20032;-76
2024/01/26 06:02:13;;;;;;;13.25;7.43;;;;;;;;;;7364630;19;19998;-76
2024/01/26 06:04:38;;;;;;;15.63;8.50;;;;;;;;;;7384377;19;19990;-76
2024/01/26 06:07:03;;;;;;;13.80;6.97;;;;;;;;;;7376001;19;20426;-76
2024/01/26 06:09:29;;;;;;;10.10;5.90;;;;;;;;;;7374083;19;19998;-76
2024/01/26 06:11:54;;;;;;;10.73;6.28;;;;;;;;;;7370120;19;20043;-76
2024/01/26 06:14:19;;;;;;;18.05;11.13;;;;;;;;;;7368257;19;20006;-75
2024/01/26 06:16:48;;;;;;;10.63;5.60;;;;;;;;;;7367734;19;20101;-74
2024/01/26 06:19:14;;;;;;;10.27;5.40;;;;;;;;;;7387218;19;20021;-76
2024/01/26 06:21:39;;;;;;;8.82;5.45;;;;;;;;;;7367602;19;20496;-76
2024/01/26 06:24:05;;;;;;;8.75;4.90;;;;;;;;;;7367266;19;20017;-76
2024/01/26 06:26:30;;;;;;;10.32;6.00;;;;;;;;;;7367467;19;20018;-75
2024/01/26 06:28:55;;;;;;;9.68;6.00;;;;;;;;;;7367194;19;19999;-76
2024/01/26 06:31:27;;;;;;;8.77;5.03;;;;;;;;;;7388899;19;20027;-76
2024/01/26 06:33:53;;;;;;;8.95;5.65;;;;;;;;;;7365980;19;20101;-76
2024/01/26 06:36:18;;;;;;;8.30;5.68;;;;;;;;;;7367671;19;20002;-76
2024/01/26 06:38:43;;;;;;;11.15;6.05;;;;;;;;;;7366973;19;20002;-76
2024/01/26 06:41:09;;;;;;;10.38;6.72;;;;;;;;;;7368849;19;20599;-76
2024/01/26 06:43:34;;;;;;;11.02;6.20;;;;;;;;;;7388287;19;19994;-75
2024/01/26 06:45:59;;;;;;;12.38;6.05;;;;;;;;;;7366480;19;20083;-76
2024/01/26 06:48:26;;;;;;;22.77;14.10;;;;;;;;;;7364295;19;20027;-76
2024/01/26 06:50:52;;;;;;;11.10;6.47;;;;;;;;;;7367376;19;20010;-75
2024/01/26 06:53:17;;;;;;;10.95;6.45;;;;;;;;;;7369376;19;20006;-75
2024/01/26 06:55:43;;;;;;;11.65;6.60;;;;;;;;;;7385878;19;20493;-75
2024/01/26 06:58:11;;;;;;;10.43;6.28;;;;;;;;;;7395197;19;19991;-77
2024/01/26 07:00:36;;;;;;;11.82;6.75;;;;;;;;;;7376034;19;20007;-76
2024/01/26 07:03:20;;;;;;;10.32;6.50;;;;;;;;;;7371862;19;20492;-78
2024/01/26 07:05:45;;;;;;;11.77;6.53;;;;;;;;;;7369281;19;20046;-76
2024/01/26 07:08:10;;;;;;;12.30;6.88;;;;;;;;;;7367285;19;20010;-76
2024/01/26 07:10:36;;;;;;;11.45;6.40;;;;;;;;;;7389484;19;20343;-76
2024/01/26 07:13:01;;;;;;;12.05;6.68;;;;;;;;;;7364522;19;20010;-75
2024/01/26 07:15:26;;;;;;;11.50;6.78;;;;;;;;;;7366164;19;20037;-75
2024/01/26 07:17:51;;;;;;;12.10;7.15;;;;;;;;;;7365734;19;20016;-76
2024/01/26 07:20:19;;;;;;;10.98;6.65;;;;;;;;;;7366549;19;20101;-76
2024/01/26 07:22:44;;;;;;;11.38;6.63;;;;;;;;;;7366822;19;20026;-75
2024/01/26 07:25:11;;;;;;;10.73;5.93;;;;;;;;;;7388437;19;19998;-75
2024/01/26 07:27:38;;;;;;;9.45;5.63;;;;;;;;;;7366327;19;20010;-75
2024/01/26 07:30:07;;;;;;;10.82;5.90;;;;;;;;;;7370541;19;19994;-75
2024/01/26 07:32:34;;;;;;;9.68;5.75;;;;;;;;;;7368280;19;20592;-75
2024/01/26 07:34:59;;;;;;;10.73;6.03;;;;;;;;;;7367019;19;20013;-76
2024/01/26 07:37:24;;;;;;;11.85;6.25;;;;;;;;;;7386987;19;20082;-76
2024/01/26 07:39:50;;;;;;;11.50;6.18;;;;;;;;;;7364420;19;20495;-76
2024/01/26 07:42:15;;;;;;;10.20;6.25;;;;;;;;;;7365389;19;20010;-75
2024/01/26 07:44:40;;;;;;;10.18;5.82;;;;;;;;;;7364799;19;20022;-76
2024/01/26 07:47:06;;;;;;;10.40;6.70;;;;;;;;;;7354825;19;20010;-76
2024/01/26 07:49:31;;;;;;;10.55;5.90;;;;;;;;;;7389713;19;20075;-75
2024/01/26 07:51:56;;;;;;;12.10;6.43;;;;;;;;;;7367817;19;20107;-75
2024/01/26 07:54:22;;;;;;;13.65;6.18;;;;;;;;;;7368387;19;20507;-75
2024/01/26 07:56:47;;;;;;;10.32;6.00;;;;;;;;;;7368127;19;20018;-75
2024/01/26 07:59:12;;;;;;;10.55;6.40;;;;;;;;;;7362393;19;20002;-76
2024/01/26 08:01:38;;;;;;;11.02;6.25;;;;;;;;;;7386593;19;19998;-77
2024/01/26 08:04:03;;;;;;;33.17;20.58;;;;;;;;;;7362207;19;20486;-75
2024/01/26 08:06:29;;;;;;;11.07;6.03;;;;;;;;;;7363047;19;20508;-76
2024/01/26 08:08:54;;;;;;;10.38;6.00;;;;;;;;;;7363496;19;20226;-74
2024/01/26 08:11:19;;;;;;;10.50;5.97;;;;;;;;;;7364603;19;20472;-75
2024/01/26 08:13:45;;;;;;;11.20;6.57;;;;;;;;;;7362741;19;19994;-76
2024/01/26 08:16:15;;;;;;;10.27;5.43;;;;;;;;;;7385811;19;20018;-75
2024/01/26 08:18:40;;;;;;;10.00;5.70;;;;;;;;;;7363949;19;20003;-75
2024/01/26 08:21:07;;;;;;;11.02;5.78;;;;;;;;;;7366216;19;20070;-75
2024/01/26 08:23:32;;;;;;;9.57;5.82;;;;;;;;;;7365582;19;20007;-75
2024/01/26 08:25:58;;;;;;;9.80;5.63;;;;;;;;;;7369290;19;20367;-75
2024/01/26 08:28:23;;;;;;;55.08;32.60;;;;;;;;;;7393144;19;19991;-75
2024/01/26 08:30:48;;;;;;;45.15;28.45;;;;;;;;;;7383276;19;20003;-75
2024/01/26 08:33:14;;;;;;;12.32;7.13;;;;;;;;;;7379752;19;20482;-76
2024/01/26 08:35:39;;;;;;;10.13;5.75;;;;;;;;;;7373346;19;20006;-76
2024/01/26 08:38:04;;;;;;;10.32;5.40;;;;;;;;;;7370694;19;20048;-76
2024/01/26 08:40:30;;;;;;;10.38;5.68;;;;;;;;;;7393169;19;20090;-76
2024/01/26 08:42:55;;;;;;;9.73;5.60;;;;;;;;;;7370165;19;20011;-75
2024/01/26 08:45:21;;;;;;;10.23;5.18;;;;;;;;;;7370404;19;20010;-75
2024/01/26 08:47:47;;;;;;;10.48;5.70;;;;;;;;;;7371090;19;20006;-75
2024/01/26 08:50:12;;;;;;;9.98;5.20;;;;;;;;;;7372394;19;20035;-75
2024/01/26 08:52:37;;;;;;;9.07;5.35;;;;;;;;;;7393470;19;20018;-75
2024/01/26 08:55:04;;;;;;;9.57;5.45;;;;;;;;;;7372367;19;20623;-77
2024/01/26 08:57:29;;;;;;;10.93;5.68;;;;;;;;;;7368632;19;20077;-75
2024/01/26 08:59:55;;;;;;;9.88;6.10;;;;;;;;;;7371140;19;20073;-76
2024/01/26 09:02:20;;;;;;;11.20;6.05;;;;;;;;;;7370684;19;20014;-75
2024/01/26 09:04:45;;;;;;;10.63;5.70;;;;;;;;;;7368078;19;20422;-75
2024/01/26 09:07:11;;;;;;;11.40;6.03;;;;;;;;;;7392008;19;20001;-76
2024/01/26 09:09:37;;;;;;;12.30;6.78;;;;;;;;;;7368310;19;20054;-76
2024/01/26 09:12:03;;;;;;;8.73;6.03;;;;;;;;;;7366483;19;20405;-75
2024/01/26 09:14:28;;;;;;;11.48;7.00;;;;;;;;;;7368035;19;20011;-75
2024/01/26 09:16:54;;;;;;;11.80;6.80;;;;;;;;;;7369469;19;20390;-76
2024/01/26 09:19:19;;;;;;;10.15;6.18;;;;;;;;;;7389159;19;20098;-76
2024/01/26 09:21:45;;;;;;;12.68;7.15;;;;;;;;;;7369466;19;20010;-75
2024/01/26 09:24:11;;;;;;;14.20;6.93;;;;;;;;;;7369905;19;19999;-76
2024/01/26 09:26:39;;;;;;;18.02;10.43;;;;;;;;;;7370239;19;20002;-75
2024/01/26 09:29:04;;;;;;;13.75;9.15;;;;;;;;;;7368276;19;20018;-75
2024/01/26 09:31:29;;;;;;;12.73;7.53;;;;;;;;;;7391207;19;19999;-75
2024/01/26 09:33:55;;;;;;;13.77;8.82;;;;;;;;;;7366795;19;20006;-75
2024/01/26 09:36:20;;;;;;;12.70;7.82;;;;;;;;;;7371326;19;20018;-75
2024/01/26 09:38:46;;;;;;;11.18;7.32;;;;;;;;;;7368323;19;20002;-75
2024/01/26 09:41:11;;;;;;;11.15;7.35;;;;;;;;;;7368496;19;20013;-75
2024/01/26 09:43:37;;;;;;;11.68;8.20;;;;;;;;;;7390105;19;20023;-76
2024/01/26 09:46:04;;;;;;;10.65;7.18;;;;;;;;;;7370531;19;19995;-76
2024/01/26 09:48:34;;;;;;;12.20;7.47;;;;;;;;;;7373179;19;20046;-76
2024/01/26 09:51:01;;;;;;;10.48;6.65;;;;;;;;;;7371490;19;19995;-76
2024/01/26 09:53:26;;;;;;;10.02;5.97;;;;;;;;;;7371189;19;20353;-76
2024/01/26 09:55:52;;;;;;;8.93;6.20;;;;;;;;;;7370438;19;20002;-76
2024/01/26 09:58:18;;;;;;;12.05;6.82;;;;;;;;;;7389169;19;20007;-76
2024/01/26 10:00:45;;;;;;;8.73;6.13;;;;;;;;;;7370075;19;20010;-76
2024/01/26 10:03:14;;;;;;;9.63;6.22;;;;;;;;;;7375855;19;20033;-77
2024/01/26 10:05:39;;;;;;;8.77;5.93;;;;;;;;;;7379877;19;20002;-76
2024/01/26 10:08:09;;;;;;;11.02;6.10;;;;;;;;;;7369761;19;20016;-76
2024/01/26 10:10:34;;;;;;;9.98;6.20;;;;;;;;;;7392669;19;20018;-76
2024/01/26 10:12:59;;;;;;;10.18;5.90;;;;;;;;;;7370278;19;20013;-77
2024/01/26 10:15:25;;;;;;;8.40;6.00;;;;;;;;;;7372820;19;20002;-77
2024/01/26 10:17:56;;;;;;;7.15;4.90;;;;;;;;;;7369392;19;20013;-73
2024/01/26 10:20:21;;;;;;;;;;;;;;;;;;7371918;19;20002;-78
2024/01/26 10:22:47;;;;;;;8.88;5.25;;;;;;;;;;7368661;19;19919;-77
2024/01/26 10:25:14;;;;;;;9.98;5.05;;;;;;;;;;7390738;19;20013;-78
2024/01/26 10:27:40;;;;;;;9.50;5.13;;;;;;;;;;7371978;19;20022;-77
2024/01/26 10:30:07;;;;;;;11.10;4.70;;;;;;;;;;7369759;19;20437;-77
2024/01/26 10:32:32;;;;;;;7.22;4.90;;;;;;;;;;7369645;19;20002;-77
2024/01/26 10:35:00;;;;;;;7.47;4.45;;;;;;;;;;7367288;19;20014;-77
2024/01/26 10:37:27;;;;;;;8.40;4.60;;;;;;;;;;7390016;19;20007;-76
2024/01/26 10:39:53;;;;;;;9.57;4.45;;;;;;;;;;7369225;19;20002;-76
2024/01/26 10:42:20;;;;;;;11.98;4.35;;;;;;;;;;7373487;19;20014;-76
2024/01/26 10:44:46;;;;;;;7.25;4.53;;;;;;;;;;7368511;19;20492;-76
2024/01/26 10:47:13;;;;;;;6.75;4.30;;;;;;;;;;7367035;19;20006;-76
2024/01/26 10:49:39;;;;;;;8.82;4.25;;;;;;;;;;7388790;19;20006;-76
2024/01/26 10:52:06;;;;;;;8.82;4.03;;;;;;;;;;7367506;19;20013;-76
2024/01/26 10:54:32;;;;;;;7.70;4.10;;;;;;;;;;7366079;19;20006;-76
2024/01/26 10:56:58;;;;;;;7.03;3.95;;;;;;;;;;7367300;19;20010;-76
2024/01/26 10:59:25;;;;;;;6.43;4.35;;;;;;;;;;7365754;19;20880;-76
2024/01/26 11:01:51;;;;;;;6.25;3.92;;;;;;;;;;7367610;19;20013;-76
2024/01/26 11:04:17;;;;;;;6.15;3.28;;;;;;;;;;7388464;19;20420;-76
2024/01/26 11:06:44;;;;;;;6.20;3.30;;;;;;;;;;7367877;19;20039;-76
2024/01/26 11:09:15;;;;;;;5.60;3.40;;;;;;;;;;7368956;19;19999;-77
2024/01/26 11:11:40;;;;;;;4.53;2.88;;;;;;;;;;7367937;19;20382;-76
2024/01/26 11:14:10;;;;;;;5.53;3.17;;;;;;;;;;7365664;19;20007;-76
2024/01/26 11:16:41;;;;;;;6.28;3.25;;;;;;;;;;7388270;19;19999;-77
2024/01/26 11:19:06;;;;;;;;;;;;;;;;;;7364980;19;20378;-76
2024/01/26 11:21:39;;;;;;;6.13;2.88;;;;;;;;;;7365770;19;19914;-76
2024/01/26 11:24:14;;;;;;;4.93;3.00;;;;;;;;;;7365202;19;20002;-76
2024/01/26 11:26:40;;;;;;;4.57;2.45;;;;;;;;;;7365566;19;19999;-76
2024/01/26 11:29:13;;;;;;;5.90;2.72;;;;;;;;;;7368465;19;20010;-76
2024/01/26 11:31:41;;;;;;;6.07;2.65;;;;;;;;;;7392599;19;20036;-77
2024/01/26 11:34:19;;;;;;;5.68;2.85;;;;;;;;;;7367099;19;20009;-77
2024/01/26 11:36:45;;;;;;;3.85;2.38;;;;;;;;;;7367876;19;20007;-77
2024/01/26 11:39:13;;;;;;;4.63;2.35;;;;;;;;;;7364416;19;20892;-76
2024/01/26 11:41:45;;;;;;;4.53;2.10;;;;;;;;;;7365913;19;20002;-76
2024/01/26 11:44:18;;;;;;;5.97;2.22;;;;;;;;;;7365849;19;20002;-77
2024/01/26 11:46:44;;;;;;;2.58;2.00;;;;;;;;;;7365060;19;20363;-77
2024/01/26 11:49:09;;;;;;;3.40;2.00;;;;;;;;;;7386486;19;20002;-77
2024/01/26 11:51:35;;;;;;;4.18;2.20;;;;;;;;;;7370213;19;20006;-77
2024/01/26 11:54:00;;;;;;;4.10;2.00;;;;;;;;;;7374520;19;20006;-76
2024/01/26 11:56:25;;;;;;;3.35;1.88;;;;;;;;;;7369160;19;20003;-77
2024/01/26 11:58:51;;;;;;;2.80;1.60;;;;;;;;;;7368684;19;19995;-77
2024/01/26 12:01:16;;;;;;;1.60;1.50;;;;;;;;;;7392661;19;20002;-77
2024/01/26 12:03:41;;;;;;;1.88;1.52;;;;;;;;;;7369249;19;20502;-77
2024/01/26 12:06:07;;;;;;;2.35;1.52;;;;;;;;;;7366903;19;20006;-77
2024/01/26 12:08:32;;;;;;;1.98;1.40;;;;;;;;;;7363094;19;20465;-77
2024/01/26 12:10:58;;;;;;;1.45;1.35;;;;;;;;;;7365893;19;20012;-77
2024/01/26 12:13:23;;;;;;;1.83;1.50;;;;;;;;;;7385127;19;20551;-77
2024/01/26 12:15:49;;;;;;;1.60;1.35;;;;;;;;;;7364422;19;19998;-77
2024/01/26 12:18:18;;;;;;;1.30;1.20;;;;;;;;;;7364100;19;20378;-77
2024/01/26 12:20:46;;;;;;;1.67;1.35;;;;;;;;;;7365031;19;20010;-77
2024/01/26 12:23:19;;;;;;;1.40;1.30;;;;;;;;;;7364459;19;20014;-77
2024/01/26 12:25:45;;;;;;;1.60;1.23;;;;;;;;;;7365622;19;20473;-77
2024/01/26 12:28:11;;;;;;;2.55;1.52;;;;;;;;;;7384912;19;20011;-77
2024/01/26 12:30:37;;;;;;;1.65;1.30;;;;;;;;;;7366403;19;20003;-77
2024/01/26 12:33:06;;;;;;;1.88;1.50;;;;;;;;;;7364031;19;20022;-78
2024/01/26 12:35:39;;;;;;;1.27;1.02;;;;;;;;;;7364196;19;20011;-76
2024/01/26 12:38:05;;;;;;;1.23;1.13;;;;;;;;;;7362875;19;20006;-76
2024/01/26 12:40:31;;;;;;;2.00;1.20;;;;;;;;;;7385349;19;20009;-77
2024/01/26 12:42:56;;;;;;;1.20;1.10;;;;;;;;;;7363282;19;20018;-77
2024/01/26 12:45:21;;;;;;;1.75;1.20;;;;;;;;;;7364776;19;20003;-77
2024/01/26 12:47:47;;;;;;;1.20;1.10;;;;;;;;;;7355137;19;20003;-77
2024/01/26 12:50:12;;;;;;;1.15;1.00;;;;;;;;;;7365582;19;20022;-77
2024/01/26 12:52:37;;;;;;;1.30;1.20;;;;;;;;;;7389082;19;20002;-76
2024/01/26 12:55:03;;;;;;;1.30;1.20;;;;;;;;;;7370310;19;20541;-75
2024/01/26 12:57:30;;;;;;;1.63;1.10;;;;;;;;;;7367179;19;19999;-76
2024/01/26 12:59:55;;;;;;;1.92;1.33;;;;;;;;;;7373964;19;20035;-75
2024/01/26 13:02:21;;;;;;;1.20;1.10;;;;;;;;;;7367937;19;20003;-75
2024/01/26 13:04:53;;;;;;;2.63;1.20;;;;;;;;;;7360785;19;20003;-75
2024/01/26 13:07:20;;;;;;;1.10;1.00;;;;;;;;;;7384476;19;20027;-75
2024/01/26 13:09:46;;;;;;;1.02;0.93;;;;;;;;;;7361570;19;20009;-75
2024/01/26 13:12:11;;;;;;;0.85;0.85;;;;;;;;;;7369978;19;20002;-75
2024/01/26 13:14:36;;;;;;;0.85;0.85;;;;;;;;;;7369418;19;20385;-75
2024/01/26 13:17:03;;;;;;;1.35;0.90;;;;;;;;;;7371370;19;20016;-75
2024/01/26 13:19:29;;;;;;;1.27;1.10;;;;;;;;;;7389734;19;20011;-78
2024/01/26 13:21:56;;;;;;;1.48;1.10;;;;;;;;;;7375616;19;20367;-79
2024/01/26 13:24:22;;;;;;;0.73;0.73;;;;;;;;;;7372489;19;20394;-78
2024/01/26 13:26:48;;;;;;;1.05;0.95;;;;;;;;;;7377354;19;20089;-77
2024/01/26 13:29:14;;;;;;;4.32;1.33;;;;;;;;;;7382502;19;20039;-78
2024/01/26 13:31:40;;;;;;;0.93;0.93;;;;;;;;;;7408687;19;20413;-78
2024/01/26 13:34:07;;;;;;;1.00;0.90;;;;;;;;;;7390482;19;19998;-78
2024/01/26 13:36:32;;;;;;;0.95;0.70;;;;;;;;;;7399854;19;19998;-77
2024/01/26 13:38:57;;;;;;;1.25;0.90;;;;;;;;;;7391832;19;20006;-78
2024/01/26 13:41:23;;;;;;;2.25;0.95;;;;;;;;;;7388746;19;20010;-78
2024/01/26 13:43:49;;;;;;;1.00;0.70;;;;;;;;;;7384590;19;19994;-79
2024/01/26 13:46:14;;;;;;;1.65;0.95;;;;;;;;;;7409779;19;19995;-78
2024/01/26 13:48:39;;;;;;;2.63;1.00;;;;;;;;;;7384694;19;20010;-79
2024/01/26 13:51:05;;;;;;;1.65;1.00;;;;;;;;;;7387717;19;20070;-79
2024/01/26 13:53:30;;;;;;;4.28;1.13;;;;;;;;;;7393706;19;20019;-79
2024/01/26 13:55:57;;;;;;;1.42;1.00;;;;;;;;;;7390249;19;20001;-79
2024/01/26 13:58:22;;;;;;;2.60;1.30;;;;;;;;;;7409331;19;21040;-79
2024/01/26 14:00:48;;;;;;;2.97;1.20;;;;;;;;;;7391988;19;20002;-78
2024/01/26 14:03:13;;;;;;;5.22;1.50;;;;;;;;;;7390766;19;20016;-79
2024/01/26 14:05:41;;;;;;;5.72;1.50;;;;;;;;;;7387592;19;20063;-79
2024/01/26 14:08:06;;;;;;;4.70;1.60;;;;;;;;;;7385227;19;20051;-78
2024/01/26 14:10:34;;;;;;;4.18;1.40;;;;;;;;;;7408288;19;19999;-78
2024/01/26 14:13:00;;;;;;;4.63;1.63;;;;;;;;;;7385907;19;20006;-79
2024/01/26 14:15:25;;;;;;;3.22;1.80;;;;;;;;;;7393604;19;20042;-78
2024/01/26 14:17:52;;;;;;;4.32;1.40;;;;;;;;;;7386736;19;20010;-78
2024/01/26 14:20:21;;;;;;;3.40;1.40;;;;;;;;;;7384760;19;20014;-79